sensor_id;sensor_type;location;lat;lon;timestamp;P1;durP1;ratioP1;P2;durP2;ratioP2
17151;SDS011;8691;50.828;4.700;2022-12-18T00:01:46;42.58;;;32.58;;
17151;SDS011;8691;50.828;4.700;2022-12-18T00:04:21;44.20;;;34.05;;
17151;SDS011;8691;50.828;4.700;2022-12-18T00:06:47;37.63;;;26.07;;
17151;SDS011;8691;50.828;4.700;2022-12-18T00:09:14;37.90;;;24.40;;
17151;SDS011;8691;50.828;4.700;2022-12-18T00:11:41;34.70;;;22.73;;
17151;SDS011;8691;50.828;4.700;2022-12-18T00:14:08;47.45;;;34.03;;
17151;SDS011;8691;50.828;4.700;2022-12-18T00:16:36;42.72;;;33.15;;
17151;SDS011;8691;50.828;4.700;2022-12-18T00:19:03;45.30;;;34.10;;
17151;SDS011;8691;50.828;4.700;2022-12-18T00:21:31;44.60;;;34.03;;
17151;SDS011;8691;50.828;4.700;2022-12-18T00:23:57;47.38;;;35.42;;
17151;SDS011;8691;50.828;4.700;2022-12-18T00:26:27;33.57;;;23.03;;
17151;SDS011;8691;50.828;4.700;2022-12-18T00:28:54;33.17;;;22.45;;
17151;SDS011;8691;50.828;4.700;2022-12-18T00:31:21;42.78;;;32.08;;
17151;SDS011;8691;50.828;4.700;2022-12-18T00:33:47;44.53;;;33.67;;
17151;SDS011;8691;50.828;4.700;2022-12-18T00:36:15;45.05;;;33.85;;
17151;SDS011;8691;50.828;4.700;2022-12-18T00:38:41;43.92;;;34.22;;
17151;SDS011;8691;50.828;4.700;2022-12-18T00:41:09;42.12;;;32.80;;
17151;SDS011;8691;50.828;4.700;2022-12-18T00:43:37;42.78;;;33.28;;
17151;SDS011;8691;50.828;4.700;2022-12-18T00:46:04;41.75;;;31.75;;
17151;SDS011;8691;50.828;4.700;2022-12-18T00:48:31;43.53;;;33.20;;
17151;SDS011;8691;50.828;4.700;2022-12-18T00:50:59;43.50;;;33.33;;
17151;SDS011;8691;50.828;4.700;2022-12-18T00:53:26;41.97;;;32.28;;
17151;SDS011;8691;50.828;4.700;2022-12-18T00:55:53;42.77;;;30.93;;
17151;SDS011;8691;50.828;4.700;2022-12-18T00:58:21;40.88;;;31.65;;
17151;SDS011;8691;50.828;4.700;2022-12-18T01:00:49;39.35;;;30.45;;
17151;SDS011;8691;50.828;4.700;2022-12-18T01:03:15;41.47;;;30.43;;
17151;SDS011;8691;50.828;4.700;2022-12-18T01:05:42;41.30;;;31.17;;
17151;SDS011;8691;50.828;4.700;2022-12-18T01:08:09;39.05;;;30.60;;
17151;SDS011;8691;50.828;4.700;2022-12-18T01:10:36;40.20;;;31.33;;
17151;SDS011;8691;50.828;4.700;2022-12-18T01:13:03;43.05;;;32.20;;
17151;SDS011;8691;50.828;4.700;2022-12-18T01:15:30;46.28;;;34.25;;
17151;SDS011;8691;50.828;4.700;2022-12-18T01:17:57;47.35;;;34.92;;
17151;SDS011;8691;50.828;4.700;2022-12-18T01:20:24;47.58;;;34.75;;
17151;SDS011;8691;50.828;4.700;2022-12-18T01:22:51;45.95;;;35.30;;
17151;SDS011;8691;50.828;4.700;2022-12-18T01:25:18;49.45;;;37.00;;
17151;SDS011;8691;50.828;4.700;2022-12-18T01:27:45;46.55;;;34.97;;
17151;SDS011;8691;50.828;4.700;2022-12-18T01:30:12;43.92;;;33.45;;
17151;SDS011;8691;50.828;4.700;2022-12-18T01:32:39;42.25;;;32.42;;
17151;SDS011;8691;50.828;4.700;2022-12-18T01:35:07;44.08;;;33.55;;
17151;SDS011;8691;50.828;4.700;2022-12-18T01:37:34;45.97;;;34.90;;
17151;SDS011;8691;50.828;4.700;2022-12-18T01:40:01;48.15;;;36.40;;
17151;SDS011;8691;50.828;4.700;2022-12-18T01:42:28;49.33;;;37.08;;
17151;SDS011;8691;50.828;4.700;2022-12-18T01:44:59;50.12;;;37.22;;
17151;SDS011;8691;50.828;4.700;2022-12-18T01:47:43;48.35;;;37.38;;
17151;SDS011;8691;50.828;4.700;2022-12-18T01:52:36;45.62;;;32.55;;
17151;SDS011;8691;50.828;4.700;2022-12-18T01:55:04;45.45;;;33.40;;
17151;SDS011;8691;50.828;4.700;2022-12-18T01:57:32;43.47;;;33.50;;
17151;SDS011;8691;50.828;4.700;2022-12-18T02:00:06;40.58;;;31.67;;
17151;SDS011;8691;50.828;4.700;2022-12-18T02:02:31;43.12;;;32.47;;
17151;SDS011;8691;50.828;4.700;2022-12-18T02:04:58;41.87;;;30.87;;
17151;SDS011;8691;50.828;4.700;2022-12-18T02:07:40;36.53;;;28.63;;
17151;SDS011;8691;50.828;4.700;2022-12-18T02:10:21;37.23;;;28.10;;
17151;SDS011;8691;50.828;4.700;2022-12-18T02:12:59;35.53;;;27.25;;
17151;SDS011;8691;50.828;4.700;2022-12-18T02:15:24;31.20;;;23.88;;
17151;SDS011;8691;50.828;4.700;2022-12-18T02:18:11;34.00;;;25.50;;
17151;SDS011;8691;50.828;4.700;2022-12-18T02:20:26;33.43;;;24.57;;
17151;SDS011;8691;50.828;4.700;2022-12-18T02:23:12;32.97;;;24.67;;
17151;SDS011;8691;50.828;4.700;2022-12-18T02:28:44;24.00;;;16.57;;
17151;SDS011;8691;50.828;4.700;2022-12-18T02:31:12;36.30;;;27.00;;
17151;SDS011;8691;50.828;4.700;2022-12-18T02:33:36;34.20;;;20.83;;
17151;SDS011;8691;50.828;4.700;2022-12-18T02:36:04;41.12;;;27.88;;
17151;SDS011;8691;50.828;4.700;2022-12-18T02:38:31;40.65;;;27.15;;
17151;SDS011;8691;50.828;4.700;2022-12-18T02:40:58;41.70;;;28.10;;
17151;SDS011;8691;50.828;4.700;2022-12-18T02:43:25;40.17;;;28.23;;
17151;SDS011;8691;50.828;4.700;2022-12-18T02:45:53;41.65;;;27.55;;
17151;SDS011;8691;50.828;4.700;2022-12-18T02:48:19;39.22;;;27.70;;
17151;SDS011;8691;50.828;4.700;2022-12-18T02:50:48;38.40;;;27.95;;
17151;SDS011;8691;50.828;4.700;2022-12-18T02:53:17;40.13;;;27.67;;
17151;SDS011;8691;50.828;4.700;2022-12-18T03:01:11;36.67;;;26.58;;
17151;SDS011;8691;50.828;4.700;2022-12-18T03:03:40;37.03;;;25.88;;
17151;SDS011;8691;50.828;4.700;2022-12-18T03:06:18;36.20;;;26.77;;
17151;SDS011;8691;50.828;4.700;2022-12-18T03:08:46;38.70;;;26.17;;
17151;SDS011;8691;50.828;4.700;2022-12-18T03:11:12;36.62;;;25.73;;
17151;SDS011;8691;50.828;4.700;2022-12-18T03:13:42;36.60;;;25.15;;
17151;SDS011;8691;50.828;4.700;2022-12-18T03:16:06;37.83;;;25.80;;
17151;SDS011;8691;50.828;4.700;2022-12-18T03:18:34;31.70;;;18.90;;
17151;SDS011;8691;50.828;4.700;2022-12-18T03:21:05;39.55;;;26.20;;
17151;SDS011;8691;50.828;4.700;2022-12-18T03:23:36;38.53;;;26.92;;
17151;SDS011;8691;50.828;4.700;2022-12-18T03:26:03;35.42;;;24.65;;
17151;SDS011;8691;50.828;4.700;2022-12-18T03:28:28;34.75;;;23.90;;
17151;SDS011;8691;50.828;4.700;2022-12-18T03:30:56;35.60;;;24.52;;
17151;SDS011;8691;50.828;4.700;2022-12-18T03:33:26;34.22;;;24.02;;
17151;SDS011;8691;50.828;4.700;2022-12-18T03:35:52;33.97;;;23.98;;
17151;SDS011;8691;50.828;4.700;2022-12-18T03:38:19;33.72;;;23.52;;
17151;SDS011;8691;50.828;4.700;2022-12-18T03:41:07;32.25;;;23.52;;
17151;SDS011;8691;50.828;4.700;2022-12-18T03:43:38;33.75;;;24.12;;
17151;SDS011;8691;50.828;4.700;2022-12-18T03:46:15;33.35;;;23.48;;
17151;SDS011;8691;50.828;4.700;2022-12-18T03:48:42;32.45;;;23.62;;
17151;SDS011;8691;50.828;4.700;2022-12-18T03:51:17;34.15;;;22.98;;
17151;SDS011;8691;50.828;4.700;2022-12-18T03:54:02;32.42;;;23.33;;
17151;SDS011;8691;50.828;4.700;2022-12-18T03:56:30;32.62;;;23.38;;
17151;SDS011;8691;50.828;4.700;2022-12-18T03:58:56;32.22;;;23.52;;
17151;SDS011;8691;50.828;4.700;2022-12-18T04:01:25;31.60;;;24.05;;
17151;SDS011;8691;50.828;4.700;2022-12-18T04:03:57;32.92;;;23.50;;
17151;SDS011;8691;50.828;4.700;2022-12-18T04:06:23;28.37;;;16.97;;
17151;SDS011;8691;50.828;4.700;2022-12-18T04:08:50;31.20;;;22.67;;
17151;SDS011;8691;50.828;4.700;2022-12-18T04:11:17;31.97;;;23.43;;
17151;SDS011;8691;50.828;4.700;2022-12-18T04:13:43;31.13;;;22.27;;
17151;SDS011;8691;50.828;4.700;2022-12-18T04:16:10;31.83;;;23.33;;
17151;SDS011;8691;50.828;4.700;2022-12-18T04:18:38;31.77;;;23.27;;
17151;SDS011;8691;50.828;4.700;2022-12-18T04:21:06;31.27;;;23.00;;
17151;SDS011;8691;50.828;4.700;2022-12-18T04:23:33;30.07;;;22.40;;
17151;SDS011;8691;50.828;4.700;2022-12-18T04:26:00;31.08;;;22.58;;
17151;SDS011;8691;50.828;4.700;2022-12-18T04:28:26;23.60;;;16.47;;
17151;SDS011;8691;50.828;4.700;2022-12-18T04:30:53;28.90;;;21.83;;
17151;SDS011;8691;50.828;4.700;2022-12-18T04:33:20;30.38;;;22.60;;
17151;SDS011;8691;50.828;4.700;2022-12-18T04:35:47;29.00;;;22.38;;
17151;SDS011;8691;50.828;4.700;2022-12-18T04:38:14;24.53;;;14.77;;
17151;SDS011;8691;50.828;4.700;2022-12-18T04:40:42;30.02;;;21.62;;
17151;SDS011;8691;50.828;4.700;2022-12-18T04:43:09;28.73;;;21.92;;
17151;SDS011;8691;50.828;4.700;2022-12-18T04:45:37;30.20;;;21.57;;
17151;SDS011;8691;50.828;4.700;2022-12-18T04:48:03;21.97;;;14.97;;
17151;SDS011;8691;50.828;4.700;2022-12-18T04:50:30;24.50;;;14.30;;
17151;SDS011;8691;50.828;4.700;2022-12-18T04:52:57;30.87;;;21.60;;
17151;SDS011;8691;50.828;4.700;2022-12-18T04:55:24;28.08;;;21.38;;
17151;SDS011;8691;50.828;4.700;2022-12-18T04:57:51;31.92;;;22.75;;
17151;SDS011;8691;50.828;4.700;2022-12-18T05:00:18;31.65;;;22.52;;
17151;SDS011;8691;50.828;4.700;2022-12-18T05:02:45;30.20;;;22.37;;
17151;SDS011;8691;50.828;4.700;2022-12-18T05:05:12;30.40;;;20.98;;
17151;SDS011;8691;50.828;4.700;2022-12-18T05:07:39;27.42;;;21.12;;
17151;SDS011;8691;50.828;4.700;2022-12-18T05:10:06;28.20;;;21.23;;
17151;SDS011;8691;50.828;4.700;2022-12-18T05:12:33;28.35;;;21.02;;
17151;SDS011;8691;50.828;4.700;2022-12-18T05:15:04;30.23;;;21.10;;
17151;SDS011;8691;50.828;4.700;2022-12-18T05:17:30;23.83;;;16.00;;
17151;SDS011;8691;50.828;4.700;2022-12-18T05:19:58;29.38;;;20.95;;
17151;SDS011;8691;50.828;4.700;2022-12-18T05:22:26;28.60;;;21.03;;
17151;SDS011;8691;50.828;4.700;2022-12-18T05:24:53;29.75;;;20.85;;
17151;SDS011;8691;50.828;4.700;2022-12-18T05:27:21;30.27;;;21.95;;
17151;SDS011;8691;50.828;4.700;2022-12-18T05:29:48;27.92;;;20.75;;
17151;SDS011;8691;50.828;4.700;2022-12-18T05:32:16;28.58;;;20.25;;
17151;SDS011;8691;50.828;4.700;2022-12-18T05:34:43;28.35;;;20.27;;
17151;SDS011;8691;50.828;4.700;2022-12-18T05:37:10;25.73;;;19.27;;
17151;SDS011;8691;50.828;4.700;2022-12-18T05:39:38;27.30;;;20.60;;
17151;SDS011;8691;50.828;4.700;2022-12-18T05:42:06;26.50;;;20.50;;
17151;SDS011;8691;50.828;4.700;2022-12-18T05:44:33;29.30;;;20.10;;
17151;SDS011;8691;50.828;4.700;2022-12-18T05:47:00;27.33;;;19.73;;
17151;SDS011;8691;50.828;4.700;2022-12-18T05:49:27;26.77;;;20.23;;
17151;SDS011;8691;50.828;4.700;2022-12-18T05:51:54;27.20;;;20.27;;
17151;SDS011;8691;50.828;4.700;2022-12-18T05:54:21;28.00;;;19.83;;
17151;SDS011;8691;50.828;4.700;2022-12-18T05:56:48;29.87;;;20.10;;
17151;SDS011;8691;50.828;4.700;2022-12-18T05:59:15;25.70;;;19.17;;
17151;SDS011;8691;50.828;4.700;2022-12-18T06:01:42;21.60;;;14.53;;
17151;SDS011;8691;50.828;4.700;2022-12-18T06:04:09;25.87;;;19.63;;
17151;SDS011;8691;50.828;4.700;2022-12-18T06:06:35;25.07;;;19.27;;
17151;SDS011;8691;50.828;4.700;2022-12-18T06:09:03;25.13;;;19.10;;
17151;SDS011;8691;50.828;4.700;2022-12-18T06:11:29;24.67;;;19.10;;
17151;SDS011;8691;50.828;4.700;2022-12-18T06:13:56;20.83;;;13.73;;
17151;SDS011;8691;50.828;4.700;2022-12-18T06:16:23;25.20;;;18.53;;
17151;SDS011;8691;50.828;4.700;2022-12-18T06:18:50;21.60;;;13.80;;
17151;SDS011;8691;50.828;4.700;2022-12-18T06:21:17;25.85;;;18.15;;
17151;SDS011;8691;50.828;4.700;2022-12-18T06:23:44;26.77;;;18.87;;
17151;SDS011;8691;50.828;4.700;2022-12-18T06:26:11;24.65;;;18.50;;
17151;SDS011;8691;50.828;4.700;2022-12-18T06:28:37;21.03;;;13.70;;
17151;SDS011;8691;50.828;4.700;2022-12-18T06:31:05;23.65;;;18.33;;
17151;SDS011;8691;50.828;4.700;2022-12-18T06:33:31;20.73;;;13.90;;
17151;SDS011;8691;50.828;4.700;2022-12-18T06:38:32;24.40;;;18.48;;
17151;SDS011;8691;50.828;4.700;2022-12-18T06:41:00;23.70;;;17.75;;
17151;SDS011;8691;50.828;4.700;2022-12-18T06:43:26;24.00;;;17.30;;
17151;SDS011;8691;50.828;4.700;2022-12-18T06:45:59;23.50;;;18.08;;
17151;SDS011;8691;50.828;4.700;2022-12-18T06:48:26;25.33;;;18.33;;
17151;SDS011;8691;50.828;4.700;2022-12-18T06:50:54;22.38;;;17.67;;
17151;SDS011;8691;50.828;4.700;2022-12-18T06:53:21;22.48;;;16.62;;
17151;SDS011;8691;50.828;4.700;2022-12-18T06:55:48;21.60;;;16.50;;
17151;SDS011;8691;50.828;4.700;2022-12-18T06:58:15;22.38;;;16.83;;
17151;SDS011;8691;50.828;4.700;2022-12-18T07:00:42;23.80;;;17.05;;
17151;SDS011;8691;50.828;4.700;2022-12-18T07:03:09;22.17;;;16.62;;
17151;SDS011;8691;50.828;4.700;2022-12-18T07:05:39;23.35;;;17.08;;
17151;SDS011;8691;50.828;4.700;2022-12-18T07:08:06;20.88;;;15.95;;
17151;SDS011;8691;50.828;4.700;2022-12-18T07:10:34;22.25;;;16.83;;
17151;SDS011;8691;50.828;4.700;2022-12-18T07:13:01;19.42;;;15.35;;
17151;SDS011;8691;50.828;4.700;2022-12-18T07:15:29;20.55;;;16.42;;
17151;SDS011;8691;50.828;4.700;2022-12-18T07:17:56;20.98;;;15.82;;
17151;SDS011;8691;50.828;4.700;2022-12-18T07:20:24;20.97;;;16.57;;
17151;SDS011;8691;50.828;4.700;2022-12-18T07:22:51;19.70;;;15.82;;
17151;SDS011;8691;50.828;4.700;2022-12-18T07:25:18;21.52;;;16.58;;
17151;SDS011;8691;50.828;4.700;2022-12-18T07:27:45;20.62;;;16.20;;
17151;SDS011;8691;50.828;4.700;2022-12-18T07:30:12;20.00;;;16.23;;
17151;SDS011;8691;50.828;4.700;2022-12-18T07:32:39;19.05;;;15.70;;
17151;SDS011;8691;50.828;4.700;2022-12-18T07:35:06;20.05;;;15.90;;
17151;SDS011;8691;50.828;4.700;2022-12-18T07:37:33;18.75;;;15.45;;
17151;SDS011;8691;50.828;4.700;2022-12-18T07:40:00;16.17;;;11.73;;
17151;SDS011;8691;50.828;4.700;2022-12-18T07:42:28;19.85;;;15.12;;
17151;SDS011;8691;50.828;4.700;2022-12-18T07:44:58;13.70;;;10.47;;
17151;SDS011;8691;50.828;4.700;2022-12-18T07:47:26;18.75;;;15.00;;
17151;SDS011;8691;50.828;4.700;2022-12-18T07:49:54;18.20;;;15.45;;
17151;SDS011;8691;50.828;4.700;2022-12-18T07:52:21;20.40;;;16.73;;
17151;SDS011;8691;50.828;4.700;2022-12-18T07:54:48;20.77;;;15.68;;
17151;SDS011;8691;50.828;4.700;2022-12-18T07:57:15;22.30;;;15.73;;
17151;SDS011;8691;50.828;4.700;2022-12-18T07:59:42;20.12;;;15.98;;
17151;SDS011;8691;50.828;4.700;2022-12-18T08:02:08;15.37;;;11.23;;
17151;SDS011;8691;50.828;4.700;2022-12-18T08:04:36;21.12;;;15.55;;
17151;SDS011;8691;50.828;4.700;2022-12-18T08:07:03;22.80;;;16.75;;
17151;SDS011;8691;50.828;4.700;2022-12-18T08:09:29;22.93;;;17.37;;
17151;SDS011;8691;50.828;4.700;2022-12-18T08:11:57;20.98;;;16.85;;
17151;SDS011;8691;50.828;4.700;2022-12-18T08:14:24;22.38;;;17.40;;
17151;SDS011;8691;50.828;4.700;2022-12-18T08:16:51;20.37;;;16.53;;
17151;SDS011;8691;50.828;4.700;2022-12-18T08:19:18;24.05;;;16.95;;
17151;SDS011;8691;50.828;4.700;2022-12-18T08:21:45;19.97;;;16.67;;
17151;SDS011;8691;50.828;4.700;2022-12-18T08:24:12;20.05;;;16.58;;
17151;SDS011;8691;50.828;4.700;2022-12-18T08:26:39;17.30;;;13.13;;
17151;SDS011;8691;50.828;4.700;2022-12-18T08:29:06;18.88;;;15.85;;
17151;SDS011;8691;50.828;4.700;2022-12-18T08:31:34;21.92;;;17.35;;
17151;SDS011;8691;50.828;4.700;2022-12-18T08:34:01;22.08;;;17.05;;
17151;SDS011;8691;50.828;4.700;2022-12-18T08:36:28;21.48;;;16.95;;
17151;SDS011;8691;50.828;4.700;2022-12-18T08:38:56;15.60;;;11.87;;
17151;SDS011;8691;50.828;4.700;2022-12-18T08:41:22;17.30;;;14.70;;
17151;SDS011;8691;50.828;4.700;2022-12-18T08:43:49;16.42;;;13.80;;
17151;SDS011;8691;50.828;4.700;2022-12-18T08:46:38;16.77;;;13.68;;
17151;SDS011;8691;50.828;4.700;2022-12-18T08:49:05;12.02;;;9.43;;
17151;SDS011;8691;50.828;4.700;2022-12-18T08:51:31;15.65;;;13.80;;
17151;SDS011;8691;50.828;4.700;2022-12-18T08:53:58;14.05;;;12.55;;
17151;SDS011;8691;50.828;4.700;2022-12-18T08:56:25;14.90;;;12.35;;
17151;SDS011;8691;50.828;4.700;2022-12-18T08:58:52;11.55;;;9.00;;
17151;SDS011;8691;50.828;4.700;2022-12-18T09:01:19;12.20;;;10.88;;
17151;SDS011;8691;50.828;4.700;2022-12-18T09:03:45;13.50;;;11.60;;
17151;SDS011;8691;50.828;4.700;2022-12-18T09:06:14;10.93;;;9.40;;
17151;SDS011;8691;50.828;4.700;2022-12-18T09:08:42;10.10;;;9.03;;
17151;SDS011;8691;50.828;4.700;2022-12-18T09:11:24;10.60;;;9.23;;
17151;SDS011;8691;50.828;4.700;2022-12-18T09:13:50;9.97;;;8.97;;
17151;SDS011;8691;50.828;4.700;2022-12-18T09:16:17;12.55;;;11.00;;
17151;SDS011;8691;50.828;4.700;2022-12-18T09:18:44;12.80;;;11.25;;
17151;SDS011;8691;50.828;4.700;2022-12-18T09:21:12;10.77;;;9.50;;
17151;SDS011;8691;50.828;4.700;2022-12-18T09:23:40;7.37;;;6.63;;
17151;SDS011;8691;50.828;4.700;2022-12-18T09:26:07;12.07;;;10.77;;
17151;SDS011;8691;50.828;4.700;2022-12-18T09:28:34;9.93;;;8.90;;
17151;SDS011;8691;50.828;4.700;2022-12-18T09:31:05;10.33;;;8.93;;
17151;SDS011;8691;50.828;4.700;2022-12-18T09:33:34;33.22;;;28.17;;
17151;SDS011;8691;50.828;4.700;2022-12-18T09:36:02;40.95;;;36.85;;
17151;SDS011;8691;50.828;4.700;2022-12-18T09:38:28;48.47;;;43.22;;
17151;SDS011;8691;50.828;4.700;2022-12-18T09:41:00;12.98;;;11.62;;
17151;SDS011;8691;50.828;4.700;2022-12-18T09:43:28;10.67;;;9.57;;
17151;SDS011;8691;50.828;4.700;2022-12-18T09:45:58;10.90;;;9.27;;
17151;SDS011;8691;50.828;4.700;2022-12-18T09:48:28;10.70;;;9.60;;
17151;SDS011;8691;50.828;4.700;2022-12-18T09:51:14;10.20;;;9.10;;
17151;SDS011;8691;50.828;4.700;2022-12-18T09:53:31;11.90;;;9.70;;
17151;SDS011;8691;50.828;4.700;2022-12-18T09:55:57;10.87;;;9.67;;
17151;SDS011;8691;50.828;4.700;2022-12-18T09:58:28;11.67;;;9.73;;
17151;SDS011;8691;50.828;4.700;2022-12-18T10:01:06;11.20;;;9.67;;
17151;SDS011;8691;50.828;4.700;2022-12-18T10:03:29;11.43;;;10.10;;
17151;SDS011;8691;50.828;4.700;2022-12-18T10:11:41;11.23;;;10.03;;
17151;SDS011;8691;50.828;4.700;2022-12-18T10:17:13;12.68;;;10.80;;
17151;SDS011;8691;50.828;4.700;2022-12-18T10:19:45;9.43;;;8.10;;
17151;SDS011;8691;50.828;4.700;2022-12-18T10:22:15;11.95;;;10.75;;
17151;SDS011;8691;50.828;4.700;2022-12-18T10:27:41;12.52;;;10.95;;
17151;SDS011;8691;50.828;4.700;2022-12-18T10:30:14;12.32;;;10.93;;
17151;SDS011;8691;50.828;4.700;2022-12-18T10:32:40;12.38;;;11.07;;
17151;SDS011;8691;50.828;4.700;2022-12-18T10:35:09;13.00;;;11.60;;
17151;SDS011;8691;50.828;4.700;2022-12-18T10:37:35;13.68;;;11.32;;
17151;SDS011;8691;50.828;4.700;2022-12-18T10:42:35;12.80;;;11.50;;
17151;SDS011;8691;50.828;4.700;2022-12-18T10:45:08;13.32;;;11.52;;
17151;SDS011;8691;50.828;4.700;2022-12-18T10:47:29;14.05;;;11.75;;
17151;SDS011;8691;50.828;4.700;2022-12-18T10:49:56;13.03;;;11.67;;
17151;SDS011;8691;50.828;4.700;2022-12-18T10:52:24;12.63;;;11.33;;
17151;SDS011;8691;50.828;4.700;2022-12-18T10:54:59;13.17;;;11.47;;
17151;SDS011;8691;50.828;4.700;2022-12-18T10:59:53;11.30;;;9.90;;
17151;SDS011;8691;50.828;4.700;2022-12-18T11:02:36;14.30;;;11.80;;
17151;SDS011;8691;50.828;4.700;2022-12-18T11:05:03;11.90;;;10.03;;
17151;SDS011;8691;50.828;4.700;2022-12-18T11:07:52;14.18;;;12.68;;
17151;SDS011;8691;50.828;4.700;2022-12-18T11:10:15;14.52;;;12.88;;
17151;SDS011;8691;50.828;4.700;2022-12-18T11:12:36;16.60;;;13.15;;
17151;SDS011;8691;50.828;4.700;2022-12-18T11:15:03;15.00;;;13.15;;
17151;SDS011;8691;50.828;4.700;2022-12-18T11:17:33;14.50;;;13.00;;
17151;SDS011;8691;50.828;4.700;2022-12-18T11:20:00;16.70;;;13.60;;
17151;SDS011;8691;50.828;4.700;2022-12-18T11:22:34;13.15;;;11.75;;
17151;SDS011;8691;50.828;4.700;2022-12-18T11:25:01;14.25;;;12.75;;
17151;SDS011;8691;50.828;4.700;2022-12-18T11:27:29;14.50;;;12.60;;
17151;SDS011;8691;50.828;4.700;2022-12-18T11:30:09;13.88;;;12.40;;
17151;SDS011;8691;50.828;4.700;2022-12-18T11:32:36;14.23;;;12.73;;
17151;SDS011;8691;50.828;4.700;2022-12-18T11:35:15;14.25;;;12.80;;
17151;SDS011;8691;50.828;4.700;2022-12-18T11:37:41;11.90;;;10.20;;
17151;SDS011;8691;50.828;4.700;2022-12-18T11:40:11;14.17;;;12.67;;
17151;SDS011;8691;50.828;4.700;2022-12-18T11:42:48;16.65;;;14.85;;
17151;SDS011;8691;50.828;4.700;2022-12-18T11:47:42;16.35;;;14.45;;
17151;SDS011;8691;50.828;4.700;2022-12-18T11:50:28;16.38;;;14.25;;
17151;SDS011;8691;50.828;4.700;2022-12-18T11:52:59;12.80;;;11.00;;
17151;SDS011;8691;50.828;4.700;2022-12-18T11:58:38;15.90;;;14.20;;
17151;SDS011;8691;50.828;4.700;2022-12-18T12:01:35;15.52;;;13.93;;
17151;SDS011;8691;50.828;4.700;2022-12-18T12:04:04;16.90;;;15.10;;
17151;SDS011;8691;50.828;4.700;2022-12-18T12:09:37;13.93;;;11.20;;
17151;SDS011;8691;50.828;4.700;2022-12-18T12:14:45;14.17;;;10.73;;
17151;SDS011;8691;50.828;4.700;2022-12-18T12:22:47;14.75;;;12.60;;
17151;SDS011;8691;50.828;4.700;2022-12-18T12:27:41;16.17;;;12.87;;
17151;SDS011;8691;50.828;4.700;2022-12-18T12:38:31;14.62;;;12.93;;
17151;SDS011;8691;50.828;4.700;2022-12-18T12:41:01;15.55;;;13.27;;
17151;SDS011;8691;50.828;4.700;2022-12-18T12:46:06;14.40;;;12.90;;
17151;SDS011;8691;50.828;4.700;2022-12-18T12:48:48;14.73;;;13.18;;
17151;SDS011;8691;50.828;4.700;2022-12-18T12:51:18;12.90;;;10.03;;
17151;SDS011;8691;50.828;4.700;2022-12-18T12:53:50;16.10;;;13.75;;
17151;SDS011;8691;50.828;4.700;2022-12-18T12:56:20;16.40;;;14.17;;
17151;SDS011;8691;50.828;4.700;2022-12-18T13:01:53;15.18;;;13.43;;
17151;SDS011;8691;50.828;4.700;2022-12-18T13:04:40;15.00;;;13.50;;
17151;SDS011;8691;50.828;4.700;2022-12-18T13:07:15;15.50;;;13.90;;
17151;SDS011;8691;50.828;4.700;2022-12-18T13:13:06;15.98;;;13.98;;
17151;SDS011;8691;50.828;4.700;2022-12-18T13:15:25;16.27;;;14.03;;
17151;SDS011;8691;50.828;4.700;2022-12-18T13:17:49;16.15;;;14.45;;
17151;SDS011;8691;50.828;4.700;2022-12-18T13:20:15;17.00;;;14.40;;
17151;SDS011;8691;50.828;4.700;2022-12-18T13:22:43;17.75;;;14.70;;
17151;SDS011;8691;50.828;4.700;2022-12-18T13:25:31;18.23;;;16.17;;
17151;SDS011;8691;50.828;4.700;2022-12-18T13:28:00;18.97;;;16.10;;
17151;SDS011;8691;50.828;4.700;2022-12-18T13:40:58;17.00;;;13.20;;
17151;SDS011;8691;50.828;4.700;2022-12-18T13:43:28;18.48;;;15.98;;
17151;SDS011;8691;50.828;4.700;2022-12-18T13:46:02;20.35;;;17.15;;
17151;SDS011;8691;50.828;4.700;2022-12-18T13:48:31;19.55;;;16.62;;
17151;SDS011;8691;50.828;4.700;2022-12-18T13:51:01;20.10;;;16.67;;
17151;SDS011;8691;50.828;4.700;2022-12-18T13:53:28;18.90;;;15.90;;
17151;SDS011;8691;50.828;4.700;2022-12-18T13:55:54;17.62;;;15.40;;
17151;SDS011;8691;50.828;4.700;2022-12-18T13:58:20;19.83;;;16.70;;
17151;SDS011;8691;50.828;4.700;2022-12-18T14:00:47;18.80;;;16.53;;
17151;SDS011;8691;50.828;4.700;2022-12-18T14:03:19;19.20;;;16.12;;
17151;SDS011;8691;50.828;4.700;2022-12-18T14:05:43;19.75;;;16.40;;
17151;SDS011;8691;50.828;4.700;2022-12-18T14:08:10;20.45;;;18.15;;
17151;SDS011;8691;50.828;4.700;2022-12-18T14:10:35;21.03;;;17.07;;
17151;SDS011;8691;50.828;4.700;2022-12-18T14:13:03;22.60;;;18.00;;
17151;SDS011;8691;50.828;4.700;2022-12-18T14:15:31;21.15;;;17.92;;
17151;SDS011;8691;50.828;4.700;2022-12-18T14:20:31;20.83;;;17.12;;
17151;SDS011;8691;50.828;4.700;2022-12-18T14:22:58;20.73;;;17.27;;
17151;SDS011;8691;50.828;4.700;2022-12-18T14:25:25;22.35;;;17.98;;
17151;SDS011;8691;50.828;4.700;2022-12-18T14:28:12;20.92;;;17.73;;
17151;SDS011;8691;50.828;4.700;2022-12-18T14:30:42;22.55;;;17.92;;
17151;SDS011;8691;50.828;4.700;2022-12-18T14:33:10;23.30;;;18.12;;
17151;SDS011;8691;50.828;4.700;2022-12-18T14:35:37;22.62;;;19.02;;
17151;SDS011;8691;50.828;4.700;2022-12-18T14:40:54;19.07;;;14.00;;
17151;SDS011;8691;50.828;4.700;2022-12-18T14:43:21;23.85;;;18.90;;
17151;SDS011;8691;50.828;4.700;2022-12-18T14:45:48;23.20;;;18.93;;
17151;SDS011;8691;50.828;4.700;2022-12-18T14:48:21;25.12;;;19.05;;
17151;SDS011;8691;50.828;4.700;2022-12-18T14:50:57;23.83;;;19.60;;
17151;SDS011;8691;50.828;4.700;2022-12-18T14:53:32;23.85;;;19.30;;
17151;SDS011;8691;50.828;4.700;2022-12-18T14:55:50;19.67;;;13.93;;
17151;SDS011;8691;50.828;4.700;2022-12-18T14:58:16;21.92;;;18.23;;
17151;SDS011;8691;50.828;4.700;2022-12-18T15:00:43;23.20;;;18.87;;
17151;SDS011;8691;50.828;4.700;2022-12-18T15:03:12;23.37;;;19.17;;
17151;SDS011;8691;50.828;4.700;2022-12-18T15:05:37;24.27;;;19.75;;
17151;SDS011;8691;50.828;4.700;2022-12-18T15:08:25;23.83;;;19.42;;
17151;SDS011;8691;50.828;4.700;2022-12-18T15:10:32;24.20;;;19.92;;
17151;SDS011;8691;50.828;4.700;2022-12-18T15:18:04;26.90;;;21.80;;
17151;SDS011;8691;50.828;4.700;2022-12-18T15:20:40;24.88;;;19.83;;
17151;SDS011;8691;50.828;4.700;2022-12-18T15:23:15;25.62;;;20.42;;
17151;SDS011;8691;50.828;4.700;2022-12-18T15:25:41;24.90;;;20.45;;
17151;SDS011;8691;50.828;4.700;2022-12-18T15:28:21;25.58;;;21.02;;
17151;SDS011;8691;50.828;4.700;2022-12-18T15:30:57;26.27;;;21.58;;
17151;SDS011;8691;50.828;4.700;2022-12-18T15:33:27;28.17;;;25.07;;
17151;SDS011;8691;50.828;4.700;2022-12-18T15:35:58;24.90;;;21.23;;
17151;SDS011;8691;50.828;4.700;2022-12-18T15:38:25;22.03;;;15.77;;
17151;SDS011;8691;50.828;4.700;2022-12-18T15:40:52;24.17;;;19.23;;
17151;SDS011;8691;50.828;4.700;2022-12-18T15:43:23;23.55;;;19.67;;
17151;SDS011;8691;50.828;4.700;2022-12-18T15:46:11;25.30;;;20.20;;
17151;SDS011;8691;50.828;4.700;2022-12-18T15:48:44;25.27;;;19.88;;
17151;SDS011;8691;50.828;4.700;2022-12-18T15:51:14;25.95;;;20.23;;
17151;SDS011;8691;50.828;4.700;2022-12-18T15:53:41;24.10;;;19.23;;
17151;SDS011;8691;50.828;4.700;2022-12-18T15:56:11;24.57;;;19.53;;
17151;SDS011;8691;50.828;4.700;2022-12-18T15:58:56;25.10;;;20.43;;
17151;SDS011;8691;50.828;4.700;2022-12-18T16:01:27;25.53;;;20.57;;
17151;SDS011;8691;50.828;4.700;2022-12-18T16:03:50;25.87;;;20.93;;
17151;SDS011;8691;50.828;4.700;2022-12-18T16:06:17;24.27;;;19.83;;
17151;SDS011;8691;50.828;4.700;2022-12-18T16:08:44;24.67;;;20.17;;
17151;SDS011;8691;50.828;4.700;2022-12-18T16:11:24;27.57;;;21.40;;
17151;SDS011;8691;50.828;4.700;2022-12-18T16:14:05;25.95;;;21.12;;